Portada
METAR-TAF:

METAR-TAF

Aeroports :

Chișinău, Moldàvia

latitud: 46-55-40N, longitud: 028-55-51E, altitud: 122 m

Observació

L'informe es va fer fa 8 minuts, a les 00:00 UTC
Vent calma
Temperatura 19°C
Humitat 83%
Pressió 1019 hPa
Visibilitat 10 km o més
sense núvols per sota de 1500 mi sense presència de cumulonimbus.

METAR: LUKK 210000Z 00000KT CAVOK 19/16 Q1019 R26/CLRD// NOSIG

Hora: 03:08 (00:08 UTC)

Pronòstic

L'informe es va fer fa 48 minuts, a les 23:20 UTC
Pronòstic vàlid del 21 a les 00 UTC al 21 a les 24 UTC
Vent 4 kt amb direcció variable
Visibilitat 10 km o més
sense núvols per sota de 1500 mi sense presència de cumulonimbus.
Evolucionant progressivament
l' 21 a les 05 UTC al 21 a les 07 UTC
Vent 6 kt del Oest/Nord-Oest
Temporalment
l' 21 a les 10 UTC al 21 a les 17 UTC
Núvols disperses a una alçada de 4500 ft, Cumulonimbus.

TAF: LUKK 202320Z 2100/2124 VRB04KT CAVOK BECMG 2105/2107 30006KT TEMPO 2110/2117 SCT045CB

Observacions i pronòstics meteorològics de més de 4000 aeroports (METAR i TAF).

Les estacions disponibles són els punts grocs i vermells al mapa.

Posi el ratolí al punt desitjat per veure el nom de l'estació.

Feu clic per veure les observacions i els pronòstics meteorològics.

Per canviar el mapa: feu clic els botons verds amb una creu de color negre per apropar; al botó verd amb un guió per allunyar la imatge; o en les fletxes verdes per a mapes adjacents.


METAR-TAF: